Hallidayboro, Illinois
Current Conditions -  °F | °C
As of 3:52 AM on Thursday 29 Jan 2015 (Local Time) from KMDH Reporting Station
Clear Clear  
Wind Chill: 50°   Ceiling: Unl
Heat Index: 50°   Visibility: 10mi
Dew Point: 36°   Wind: 13mph
Humidity: 59%   Direction: 210°SSW
Pressure: 29.86"   Gusts: NA
Location:  37.907°N, 89.2086°W
Report Text: KMDH 290952Z AUTO 21011KT 10SM CLR 10/02 A2986 RMK AO2 SLP111 T01000022
Loading
Personal Weather Stations






























Interactive Weather Map New forecast layout! Learn more

10-Day Weather Forecast

Advertisements
Track Severe Weather on mobile